Atlas Leader — 7JHL — position and weather

sailwx.info

Track history (hours):
 
Tides and Currents Weather Stations Pressure Air Temp Water Temp Dewpoint Dewpoint Depression Visibility Wind Speed Wind Dir Waves Ship Positions

Atlas Leader

Last reported at 2017-Nov-16 19:49 UTC. Time now 2017-Nov-25 11:35 UTC.
Position N 38°49' W 031°21'.
Warning: this ship's position is 8 days out of date.

Length 199 m; draft 9.4 m.

Type: Cargo ship. MMSI: 432783000.

Date/timePositionNaut miles runAvg speedWind from/ knotsBaromVisibWave heightAir tempDewpointWater temp
2017-Nov-16 19:49N 38°49' W 031°21'516.9
2017-Nov-16 19:30N 38°52' W 031°15'1016.6
2017-Nov-16 18:55N 38°58' W 031°05'716.3
2017-Nov-16 18:30N 39°01' W 030°57'817.0
2017-Nov-16 18:00N 39°05' W 030°47'1116.9
2017-Nov-16 17:21N 39°10' W 030°35'616.7
2017-Nov-16 17:00N 39°13' W 030°28'816.8
2017-Nov-16 16:30N 39°17' W 030°19'917.2
2017-Nov-16 16:00N 39°21' W 030°09'816.9
2017-Nov-16 15:30N 39°26' W 029°60'816.8
2017-Nov-16 15:00N 39°29' W 029°50'816.8
2017-Nov-16 14:31N 39°33' W 029°40'816.7
2017-Nov-16 14:00N 39°37' W 029°31'816.5
2017-Nov-16 13:30N 39°41' W 029°21'816.7
2017-Nov-16 13:00N 39°45' W 029°12'816.6
2017-Nov-16 12:30N 39°49' W 029°02'816.7
2017-Nov-16 12:00N 39°53' W 028°53'816.6
2017-Nov-16 11:31N 39°57' W 028°44'816.7
2017-Nov-16 11:00N 40°02' W 028°34'1417.5
2017-Nov-16 10:12N 40°08' W 028°18'  
2017-Nov-13 02:00N 50°35' W 000°59'612.5
2017-Nov-13 01:30N 50°41' W 000°58'5 9.3
2017-Nov-13 01:00N 50°44' W 001°04'714.5
2017-Nov-13 00:30N 50°46' W 001°15'4 7.8
2017-Nov-13 00:00N 50°49' W 001°18'5 9.2
2017-Nov-12 23:30N 50°52' W 001°23'1 2.3
2017-Nov-12 23:00N 50°53' W 001°24'0 0.0
2017-Nov-12 22:26N 50°53' W 001°24'0 0.0
2017-Nov-12 21:56N 50°53' W 001°24'0 0.0
2017-Nov-12 21:26N 50°53' W 001°24'0 0.0
2017-Nov-12 19:32N 50°53' W 001°24'0 0.0
2017-Nov-12 19:02N 50°53' W 001°24'0 0.0
2017-Nov-12 18:47N 50°53' W 001°24'0 0.0
2017-Nov-12 18:29N 50°53' W 001°24'0 0.0
2017-Nov-12 17:41N 50°53' W 001°24'0 0.0
2017-Nov-12 17:23N 50°53' W 001°24'0 0.0
2017-Nov-12 16:11N 50°53' W 001°24'0 0.0
2017-Nov-12 15:56N 50°53' W 001°24'0 0.0
2017-Nov-12 13:47N 50°53' W 001°24'0 0.0
2017-Nov-12 11:26N 50°53' W 001°24'0 0.0
2017-Nov-12 09:53N 50°53' W 001°24'0 0.0
2017-Nov-12 09:20N 50°53' W 001°24'0 0.5
2017-Nov-12 09:00N 50°53' W 001°24'1 0.1
2017-Nov-11 15:55N 50°54' W 001°25'0 0.0
2017-Nov-11 15:25N 50°54' W 001°25'0 0.0
2017-Nov-11 14:55N 50°54' W 001°25'0 0.0
2017-Nov-11 11:08N 50°54' W 001°25'0 3.8
2017-Nov-11 11:00N 50°54' W 001°25'3 6.4
2017-Nov-11 10:30N 50°51' W 001°21'4 8.2
2017-Nov-11 10:00N 50°48' W 001°18'4 8.7
2017-Nov-11 09:30N 50°46' W 001°12'713.2
2017-Nov-11 09:00N 50°44' W 001°02'611.2
2017-Nov-11 08:30N 50°40' W 000°56'3 6.7
2017-Nov-11 08:00N 50°37' W 000°53'5 9.1
2017-Nov-11 07:30N 50°36' W 000°46'3 5.6
2017-Nov-11 07:00N 50°36' W 000°42'612.4
2017-Nov-11 06:30N 50°35' W 000°32'713.7
2017-Nov-11 06:00N 50°34' W 000°21'815.7
2017-Nov-11 05:30N 50°33' W 000°09'815.8
2017-Nov-11 05:00N 50°33' E 000°03'815.9
2017-Nov-11 04:30N 50°35' E 000°15'816.0
2017-Nov-11 04:00N 50°37' E 000°27'815.7
2017-Nov-11 03:30N 50°40' E 000°39'816.3
2017-Nov-11 03:00N 50°45' E 000°49'816.6
2017-Nov-11 02:30N 50°50' E 001°00'917.1
2017-Nov-11 01:59N 50°56' E 001°11'918.0
2017-Nov-11 01:30N 51°01' E 001°21'1019.5
2017-Nov-11 01:00N 51°07' E 001°33'1019.6
2017-Nov-11 00:30N 51°14' E 001°45'918.9
2017-Nov-11 00:00N 51°21' E 001°54'714.0
2017-Nov-10 23:30N 51°25' E 002°04'816.1
2017-Nov-10 23:00N 51°21' E 002°16'816.5
2017-Nov-10 22:30N 51°22' E 002°29'815.9
2017-Nov-10 21:59N 51°23' E 002°42'611.6
2017-Nov-10 21:29N 51°25' E 002°51'715.8
2017-Nov-10 21:01N 51°25' E 003°03'713.4
2017-Nov-10 20:30N 51°21' E 003°12'1 2.9
2017-Nov-10 20:00N 51°20' E 003°13'0 0.0
2017-Nov-10 19:30N 51°20' E 003°13'0 0.0
2017-Nov-10 19:00N 51°20' E 003°13'1 2.6
2017-Nov-10 18:30N 51°19' E 003°13'0 0.2
2017-Nov-10 18:00N 51°19' E 003°13'0 0.0
2017-Nov-10 17:30N 51°19' E 003°13'0 0.0
2017-Nov-10 17:00N 51°19' E 003°13'0 0.0
2017-Nov-10 16:30N 51°19' E 003°13'0 0.0
2017-Nov-10 16:00N 51°19' E 003°13'0 0.0
2017-Nov-10 15:30N 51°19' E 003°13'0 0.0
2017-Nov-10 15:00N 51°19' E 003°13'0 0.0
2017-Nov-10 14:30N 51°19' E 003°13'0 0.0
2017-Nov-10 14:00N 51°19' E 003°13'0 0.0
2017-Nov-10 13:30N 51°19' E 003°13'0 0.0
2017-Nov-10 13:00N 51°19' E 003°13'0 0.0
2017-Nov-10 12:30N 51°19' E 003°13'0 0.0
2017-Nov-10 12:00N 51°19' E 003°13'0 0.0
2017-Nov-10 11:30N 51°19' E 003°13'0 0.0
2017-Nov-10 10:57N 51°19' E 003°13'0 0.0
2017-Nov-10 10:30N 51°19' E 003°13'0 0.0
2017-Nov-10 10:00N 51°19' E 003°13'0 0.0
2017-Nov-10 09:30N 51°19' E 003°13'0 0.0
2017-Nov-10 09:00N 51°19' E 003°13'0 0.0
2017-Nov-10 08:30N 51°19' E 003°13'0 0.0
2017-Nov-10 08:00N 51°19' E 003°13'0 0.0
2017-Nov-10 07:30N 51°19' E 003°13'0 0.0
2017-Nov-10 07:00N 51°19' E 003°13'0 0.0
2017-Nov-10 06:30N 51°19' E 003°13'0 0.0
2017-Nov-10 06:00N 51°19' E 003°13'0 0.0
2017-Nov-10 05:30N 51°19' E 003°13'0 0.0
2017-Nov-10 05:00N 51°19' E 003°13'0 0.0
2017-Nov-10 04:30N 51°19' E 003°13'0 0.0
2017-Nov-10 04:00N 51°19' E 003°13'0 0.0
2017-Nov-10 03:30N 51°19' E 003°13'0 0.0
2017-Nov-10 03:00N 51°19' E 003°13'0 0.0
2017-Nov-10 02:30N 51°19' E 003°13'0 0.0
2017-Nov-10 02:00N 51°19' E 003°13'0 0.0
2017-Nov-10 01:30N 51°19' E 003°13'0 0.0
2017-Nov-10 01:00N 51°19' E 003°13'0 0.0
2017-Nov-10 00:30N 51°19' E 003°13'0 0.0
2017-Nov-10 00:00N 51°19' E 003°13'0 0.0
2017-Nov-09 23:30N 51°19' E 003°13'0 0.0
2017-Nov-09 23:00N 51°19' E 003°13'0 0.0
2017-Nov-09 22:30N 51°19' E 003°13'0 0.0
2017-Nov-09 22:00N 51°19' E 003°13'0 0.0
2017-Nov-09 21:30N 51°19' E 003°13'0 0.0
2017-Nov-09 21:00N 51°19' E 003°13'0 0.0
2017-Nov-09 20:30N 51°19' E 003°13'0 0.2
2017-Nov-09 20:00N 51°19' E 003°13'1 2.5
2017-Nov-09 19:30N 51°20' E 003°13'0 0.0
2017-Nov-09 19:00N 51°20' E 003°13'2 4.1
2017-Nov-09 18:30N 51°22' E 003°11'713.2
2017-Nov-09 18:00N 51°24' E 003°02'815.8
2017-Nov-09 17:30N 51°22' E 002°50'5 8.8
2017-Nov-09 16:53N 51°23' E 002°41'4 9.4
2017-Nov-09 16:30N 51°27' E 002°40'2 2.9
2017-Nov-09 15:58N 51°28' E 002°38'6 5.3
2017-Nov-09 14:47N 51°34' E 002°38'3 9.6
2017-Nov-09 14:27N 51°37' E 002°39'510.4
2017-Nov-09 13:59N 51°42' E 002°38'5915.5
2017-Nov-09 10:11N 52°33' E 003°26'616.5
2017-Nov-09 09:51N 52°38' E 003°31'616.1
2017-Nov-09 09:30N 52°42' E 003°37'815.7
2017-Nov-09 09:00N 52°48' E 003°46'915.5
2017-Nov-09 08:25N 52°54' E 003°56'715.2
2017-Nov-09 07:58N 52°59' E 004°04'815.2
2017-Nov-09 07:27N 53°05' E 004°13'715.2
2017-Nov-09 06:59N 53°10' E 004°22'2915.3
2017-Nov-09 05:04N 53°31' E 004°55'1117.2
2017-Nov-09 04:26N 53°35' E 005°12'5513.8
2017-Nov-09 00:26N 53°31' E 006°45'512.6
2017-Nov-09 00:00N 53°28' E 006°52'510.7
2017-Nov-08 23:30N 53°24' E 006°57'5 9.1
2017-Nov-08 23:00N 53°19' E 007°01'4 8.5
2017-Nov-08 22:30N 53°20' E 007°08'1 1.9
2017-Nov-08 21:57N 53°20' E 007°10'0 0.0
2017-Nov-08 21:29N 53°20' E 007°10'0 0.0
2017-Nov-08 21:01N 53°20' E 007°10'0 0.0
2017-Nov-08 20:31N 53°20' E 007°10'0 0.0
2017-Nov-08 20:01N 53°20' E 007°10'0 0.0
2017-Nov-08 19:31N 53°20' E 007°10'0 0.0
2017-Nov-08 19:00N 53°20' E 007°10'0 0.0
2017-Nov-08 18:31N 53°20' E 007°10'0 0.0
2017-Nov-08 18:01N 53°20' E 007°10'0 0.0
2017-Nov-08 17:31N 53°20' E 007°10'0 0.0
2017-Nov-08 17:01N 53°20' E 007°10'0 0.0
2017-Nov-08 16:31N 53°20' E 007°10'0 0.0
2017-Nov-08 16:01N 53°20' E 007°10'0 0.0
2017-Nov-08 15:30N 53°20' E 007°10'0 0.0
2017-Nov-08 15:01N 53°20' E 007°10'0 0.0
2017-Nov-08 14:31N 53°20' E 007°10'0 0.0
2017-Nov-08 14:01N 53°20' E 007°10'0 0.0
2017-Nov-08 13:31N 53°20' E 007°10'0 0.0
2017-Nov-08 13:01N 53°20' E 007°10'0 0.0
2017-Nov-08 12:30N 53°20' E 007°10'0 0.0
2017-Nov-08 12:01N 53°20' E 007°10'0 0.0
2017-Nov-08 11:30N 53°20' E 007°10'0 0.0
2017-Nov-08 11:01N 53°20' E 007°10'0 0.0
2017-Nov-08 10:31N 53°20' E 007°10'0 0.0
2017-Nov-08 10:01N 53°20' E 007°10'0 0.0
2017-Nov-08 09:30N 53°20' E 007°10'0 0.0
2017-Nov-08 09:00N 53°20' E 007°10'0 0.0
2017-Nov-08 08:30N 53°20' E 007°10'0 0.0
2017-Nov-08 08:01N 53°20' E 007°10'0 0.0
2017-Nov-08 07:31N 53°20' E 007°10'0 0.0
2017-Nov-08 07:01N 53°20' E 007°10'0 0.0
2017-Nov-08 06:31N 53°20' E 007°10'0 0.0
2017-Nov-08 06:01N 53°20' E 007°10'0 0.0
2017-Nov-08 05:31N 53°20' E 007°10'0 0.0
2017-Nov-08 05:00N 53°20' E 007°10'0 0.0
2017-Nov-08 04:30N 53°20' E 007°10'0 0.0
2017-Nov-08 04:01N 53°20' E 007°10'0 0.0
2017-Nov-08 03:31N 53°20' E 007°10'0 0.0
2017-Nov-08 03:01N 53°20' E 007°10'0 0.0
2017-Nov-08 02:30N 53°20' E 007°10'0 0.0
2017-Nov-08 02:00N 53°20' E 007°10'0 0.0
2017-Nov-08 01:30N 53°20' E 007°10'0 0.0
2017-Nov-08 01:01N 53°20' E 007°10'0 0.0
2017-Nov-08 00:31N 53°20' E 007°10'0 0.0
2017-Nov-08 00:01N 53°20' E 007°10'0 0.0
2017-Nov-07 23:31N 53°20' E 007°10'1 2.7
2017-Nov-07 23:00N 53°20' E 007°08'510.0
2017-Nov-07 22:30N 53°21' E 006°59'815.1
2017-Nov-07 22:00N 53°27' E 006°52'36 6.5
2017-Nov-07 16:23N 53°52' E 007°37'512.7
2017-Nov-07 16:00N 53°53' E 007°46'612.3
2017-Nov-07 15:30N 53°52' E 007°56'816.6
2017-Nov-07 15:00N 53°48' E 008°08'917.8
2017-Nov-07 14:30N 53°42' E 008°20'714.6
2017-Nov-07 14:00N 53°37' E 008°29'4 8.5
2017-Nov-07 13:30N 53°34' E 008°33'0 0.6
2017-Nov-07 13:00N 53°34' E 008°33'0 0.0
2017-Nov-07 12:29N 53°34' E 008°33'0 0.0
2017-Nov-07 11:59N 53°34' E 008°33'0 0.0
2017-Nov-07 11:29N 53°34' E 008°33'0 0.0
2017-Nov-07 10:59N 53°34' E 008°33'0 0.0
2017-Nov-07 10:29N 53°34' E 008°33'0 0.0
2017-Nov-07 09:59N 53°34' E 008°33'0 0.0
2017-Nov-07 09:29N 53°34' E 008°33'0 0.0
2017-Nov-07 08:59N 53°34' E 008°33'0 0.0
2017-Nov-07 08:29N 53°34' E 008°33'0 0.0
2017-Nov-07 07:59N 53°34' E 008°33'0 0.0
2017-Nov-07 07:29N 53°34' E 008°33'0 0.0
2017-Nov-07 06:59N 53°34' E 008°33'0 0.0
2017-Nov-07 06:29N 53°34' E 008°33'0 0.0
2017-Nov-07 05:59N 53°34' E 008°33'0 0.0
2017-Nov-07 05:29N 53°34' E 008°33'0 0.0
2017-Nov-07 04:59N 53°34' E 008°33'0 0.0
2017-Nov-07 04:29N 53°34' E 008°33'0 0.0
2017-Nov-07 03:59N 53°34' E 008°33'0 0.0
2017-Nov-07 03:29N 53°34' E 008°33'0 0.0
2017-Nov-07 02:59N 53°34' E 008°33'0 0.0
2017-Nov-07 02:29N 53°34' E 008°33'0 0.0
2017-Nov-07 01:59N 53°34' E 008°33'0 0.0
2017-Nov-07 01:29N 53°34' E 008°33'0 0.0
2017-Nov-07 00:59N 53°34' E 008°33'0 0.0
2017-Nov-07 00:29N 53°34' E 008°33'0 0.0
2017-Nov-06 23:59N 53°34' E 008°33'0 0.0
2017-Nov-06 23:29N 53°34' E 008°33'0 0.0
2017-Nov-06 22:59N 53°34' E 008°33'0 0.0
2017-Nov-06 22:29N 53°34' E 008°33'0 0.0
2017-Nov-06 21:59N 53°34' E 008°33'0 0.0
2017-Nov-06 21:29N 53°34' E 008°33'0 0.0
2017-Nov-06 20:59N 53°34' E 008°33'0 0.0
2017-Nov-06 20:29N 53°34' E 008°33'  
Track history (hours):
 
Tides and Currents Weather Stations Pressure Air Temp Water Temp Dewpoint Dewpoint Depression Visibility Wind Speed Wind Dir Waves Ship Positions

Atlas Leader

Last reported at 2017-Nov-16 19:49 UTC. Time now 2017-Nov-25 11:35 UTC.
Position N 38°49' W 031°21'.
Warning: this ship's position is 8 days out of date.

Length 199 m; draft 9.4 m.

Type: Cargo ship. MMSI: 432783000.

Date/timePositionNaut miles runAvg speedWind from/ knotsBaromVisibWave heightAir tempDewpointWater temp
2017-Nov-16 19:49N 38°49' W 031°21'516.9
2017-Nov-16 19:30N 38°52' W 031°15'1016.6
2017-Nov-16 18:55N 38°58' W 031°05'716.3
2017-Nov-16 18:30N 39°01' W 030°57'817.0
2017-Nov-16 18:00N 39°05' W 030°47'1116.9
2017-Nov-16 17:21N 39°10' W 030°35'616.7
2017-Nov-16 17:00N 39°13' W 030°28'816.8
2017-Nov-16 16:30N 39°17' W 030°19'917.2
2017-Nov-16 16:00N 39°21' W 030°09'816.9
2017-Nov-16 15:30N 39°26' W 029°60'816.8
2017-Nov-16 15:00N 39°29' W 029°50'816.8
2017-Nov-16 14:31N 39°33' W 029°40'816.7
2017-Nov-16 14:00N 39°37' W 029°31'816.5
2017-Nov-16 13:30N 39°41' W 029°21'816.7
2017-Nov-16 13:00N 39°45' W 029°12'816.6
2017-Nov-16 12:30N 39°49' W 029°02'816.7
2017-Nov-16 12:00N 39°53' W 028°53'816.6
2017-Nov-16 11:31N 39°57' W 028°44'816.7
2017-Nov-16 11:00N 40°02' W 028°34'1417.5
2017-Nov-16 10:12N 40°08' W 028°18'  
2017-Nov-13 02:00N 50°35' W 000°59'612.5
2017-Nov-13 01:30N 50°41' W 000°58'5 9.3
2017-Nov-13 01:00N 50°44' W 001°04'714.5
2017-Nov-13 00:30N 50°46' W 001°15'4 7.8
2017-Nov-13 00:00N 50°49' W 001°18'5 9.2
2017-Nov-12 23:30N 50°52' W 001°23'1 2.3
2017-Nov-12 23:00N 50°53' W 001°24'0 0.0
2017-Nov-12 22:26N 50°53' W 001°24'0 0.0
2017-Nov-12 21:56N 50°53' W 001°24'0 0.0
2017-Nov-12 21:26N 50°53' W 001°24'0 0.0
2017-Nov-12 19:32N 50°53' W 001°24'0 0.0
2017-Nov-12 19:02N 50°53' W 001°24'0 0.0
2017-Nov-12 18:47N 50°53' W 001°24'0 0.0
2017-Nov-12 18:29N 50°53' W 001°24'0 0.0
2017-Nov-12 17:41N 50°53' W 001°24'0 0.0
2017-Nov-12 17:23N 50°53' W 001°24'0 0.0
2017-Nov-12 16:11N 50°53' W 001°24'0 0.0
2017-Nov-12 15:56N 50°53' W 001°24'0 0.0
2017-Nov-12 13:47N 50°53' W 001°24'0 0.0
2017-Nov-12 11:26N 50°53' W 001°24'0 0.0
2017-Nov-12 09:53N 50°53' W 001°24'0 0.0
2017-Nov-12 09:20N 50°53' W 001°24'0 0.5
2017-Nov-12 09:00N 50°53' W 001°24'1 0.1
2017-Nov-11 15:55N 50°54' W 001°25'0 0.0
2017-Nov-11 15:25N 50°54' W 001°25'0 0.0
2017-Nov-11 14:55N 50°54' W 001°25'0 0.0
2017-Nov-11 11:08N 50°54' W 001°25'0 3.8
2017-Nov-11 11:00N 50°54' W 001°25'3 6.4
2017-Nov-11 10:30N 50°51' W 001°21'4 8.2
2017-Nov-11 10:00N 50°48' W 001°18'4 8.7
2017-Nov-11 09:30N 50°46' W 001°12'713.2
2017-Nov-11 09:00N 50°44' W 001°02'611.2
2017-Nov-11 08:30N 50°40' W 000°56'3 6.7
2017-Nov-11 08:00N 50°37' W 000°53'5 9.1
2017-Nov-11 07:30N 50°36' W 000°46'3 5.6
2017-Nov-11 07:00N 50°36' W 000°42'612.4
2017-Nov-11 06:30N 50°35' W 000°32'713.7
2017-Nov-11 06:00N 50°34' W 000°21'815.7
2017-Nov-11 05:30N 50°33' W 000°09'815.8
2017-Nov-11 05:00N 50°33' E 000°03'815.9
2017-Nov-11 04:30N 50°35' E 000°15'816.0
2017-Nov-11 04:00N 50°37' E 000°27'815.7
2017-Nov-11 03:30N 50°40' E 000°39'816.3
2017-Nov-11 03:00N 50°45' E 000°49'816.6
2017-Nov-11 02:30N 50°50' E 001°00'917.1
2017-Nov-11 01:59N 50°56' E 001°11'918.0
2017-Nov-11 01:30N 51°01' E 001°21'1019.5
2017-Nov-11 01:00N 51°07' E 001°33'1019.6
2017-Nov-11 00:30N 51°14' E 001°45'918.9
2017-Nov-11 00:00N 51°21' E 001°54'714.0
2017-Nov-10 23:30N 51°25' E 002°04'816.1
2017-Nov-10 23:00N 51°21' E 002°16'816.5
2017-Nov-10 22:30N 51°22' E 002°29'815.9
2017-Nov-10 21:59N 51°23' E 002°42'611.6
2017-Nov-10 21:29N 51°25' E 002°51'715.8
2017-Nov-10 21:01N 51°25' E 003°03'713.4
2017-Nov-10 20:30N 51°21' E 003°12'1 2.9
2017-Nov-10 20:00N 51°20' E 003°13'0 0.0
2017-Nov-10 19:30N 51°20' E 003°13'0 0.0
2017-Nov-10 19:00N 51°20' E 003°13'1 2.6
2017-Nov-10 18:30N 51°19' E 003°13'0 0.2
2017-Nov-10 18:00N 51°19' E 003°13'0 0.0
2017-Nov-10 17:30N 51°19' E 003°13'0 0.0
2017-Nov-10 17:00N 51°19' E 003°13'0 0.0
2017-Nov-10 16:30N 51°19' E 003°13'0 0.0
2017-Nov-10 16:00N 51°19' E 003°13'0 0.0
2017-Nov-10 15:30N 51°19' E 003°13'0 0.0
2017-Nov-10 15:00N 51°19' E 003°13'0 0.0
2017-Nov-10 14:30N 51°19' E 003°13'0 0.0
2017-Nov-10 14:00N 51°19' E 003°13'0 0.0
2017-Nov-10 13:30N 51°19' E 003°13'0 0.0
2017-Nov-10 13:00N 51°19' E 003°13'0 0.0
2017-Nov-10 12:30N 51°19' E 003°13'0 0.0
2017-Nov-10 12:00N 51°19' E 003°13'0 0.0
2017-Nov-10 11:30N 51°19' E 003°13'0 0.0
2017-Nov-10 10:57N 51°19' E 003°13'0 0.0
2017-Nov-10 10:30N 51°19' E 003°13'0 0.0
2017-Nov-10 10:00N 51°19' E 003°13'0 0.0
2017-Nov-10 09:30N 51°19' E 003°13'0 0.0
2017-Nov-10 09:00N 51°19' E 003°13'0 0.0
2017-Nov-10 08:30N 51°19' E 003°13'0 0.0
2017-Nov-10 08:00N 51°19' E 003°13'0 0.0
2017-Nov-10 07:30N 51°19' E 003°13'0 0.0
2017-Nov-10 07:00N 51°19' E 003°13'0 0.0
2017-Nov-10 06:30N 51°19' E 003°13'0 0.0
2017-Nov-10 06:00N 51°19' E 003°13'0 0.0
2017-Nov-10 05:30N 51°19' E 003°13'0 0.0
2017-Nov-10 05:00N 51°19' E 003°13'0 0.0
2017-Nov-10 04:30N 51°19' E 003°13'0 0.0
2017-Nov-10 04:00N 51°19' E 003°13'0 0.0
2017-Nov-10 03:30N 51°19' E 003°13'0 0.0
2017-Nov-10 03:00N 51°19' E 003°13'0 0.0
2017-Nov-10 02:30N 51°19' E 003°13'0 0.0
2017-Nov-10 02:00N 51°19' E 003°13'0 0.0
2017-Nov-10 01:30N 51°19' E 003°13'0 0.0
2017-Nov-10 01:00N 51°19' E 003°13'0 0.0
2017-Nov-10 00:30N 51°19' E 003°13'0 0.0
2017-Nov-10 00:00N 51°19' E 003°13'0 0.0
2017-Nov-09 23:30N 51°19' E 003°13'0 0.0
2017-Nov-09 23:00N 51°19' E 003°13'0 0.0
2017-Nov-09 22:30N 51°19' E 003°13'0 0.0
2017-Nov-09 22:00N 51°19' E 003°13'0 0.0
2017-Nov-09 21:30N 51°19' E 003°13'0 0.0
2017-Nov-09 21:00N 51°19' E 003°13'0 0.0
2017-Nov-09 20:30N 51°19' E 003°13'0 0.2
2017-Nov-09 20:00N 51°19' E 003°13'1 2.5
2017-Nov-09 19:30N 51°20' E 003°13'0 0.0
2017-Nov-09 19:00N 51°20' E 003°13'2 4.1
2017-Nov-09 18:30N 51°22' E 003°11'713.2
2017-Nov-09 18:00N 51°24' E 003°02'815.8
2017-Nov-09 17:30N 51°22' E 002°50'5 8.8
2017-Nov-09 16:53N 51°23' E 002°41'4 9.4
2017-Nov-09 16:30N 51°27' E 002°40'2 2.9
2017-Nov-09 15:58N 51°28' E 002°38'6 5.3
2017-Nov-09 14:47N 51°34' E 002°38'3 9.6
2017-Nov-09 14:27N 51°37' E 002°39'510.4
2017-Nov-09 13:59N 51°42' E 002°38'5915.5
2017-Nov-09 10:11N 52°33' E 003°26'616.5
2017-Nov-09 09:51N 52°38' E 003°31'616.1
2017-Nov-09 09:30N 52°42' E 003°37'815.7
2017-Nov-09 09:00N 52°48' E 003°46'915.5
2017-Nov-09 08:25N 52°54' E 003°56'715.2
2017-Nov-09 07:58N 52°59' E 004°04'815.2
2017-Nov-09 07:27N 53°05' E 004°13'715.2
2017-Nov-09 06:59N 53°10' E 004°22'2915.3
2017-Nov-09 05:04N 53°31' E 004°55'1117.2
2017-Nov-09 04:26N 53°35' E 005°12'5513.8
2017-Nov-09 00:26N 53°31' E 006°45'512.6
2017-Nov-09 00:00N 53°28' E 006°52'510.7
2017-Nov-08 23:30N 53°24' E 006°57'5 9.1
2017-Nov-08 23:00N 53°19' E 007°01'4 8.5
2017-Nov-08 22:30N 53°20' E 007°08'1 1.9
2017-Nov-08 21:57N 53°20' E 007°10'0 0.0
2017-Nov-08 21:29N 53°20' E 007°10'0 0.0
2017-Nov-08 21:01N 53°20' E 007°10'0 0.0
2017-Nov-08 20:31N 53°20' E 007°10'0 0.0
2017-Nov-08 20:01N 53°20' E 007°10'0 0.0
2017-Nov-08 19:31N 53°20' E 007°10'0 0.0
2017-Nov-08 19:00N 53°20' E 007°10'0 0.0
2017-Nov-08 18:31N 53°20' E 007°10'0 0.0
2017-Nov-08 18:01N 53°20' E 007°10'0 0.0
2017-Nov-08 17:31N 53°20' E 007°10'0 0.0
2017-Nov-08 17:01N 53°20' E 007°10'0 0.0
2017-Nov-08 16:31N 53°20' E 007°10'0 0.0
2017-Nov-08 16:01N 53°20' E 007°10'0 0.0
2017-Nov-08 15:30N 53°20' E 007°10'0 0.0
2017-Nov-08 15:01N 53°20' E 007°10'0 0.0
2017-Nov-08 14:31N 53°20' E 007°10'0 0.0
2017-Nov-08 14:01N 53°20' E 007°10'0 0.0
2017-Nov-08 13:31N 53°20' E 007°10'0 0.0
2017-Nov-08 13:01N 53°20' E 007°10'0 0.0
2017-Nov-08 12:30N 53°20' E 007°10'0 0.0
2017-Nov-08 12:01N 53°20' E 007°10'0 0.0
2017-Nov-08 11:30N 53°20' E 007°10'0 0.0
2017-Nov-08 11:01N 53°20' E 007°10'0 0.0
2017-Nov-08 10:31N 53°20' E 007°10'0 0.0
2017-Nov-08 10:01N 53°20' E 007°10'0 0.0
2017-Nov-08 09:30N 53°20' E 007°10'0 0.0
2017-Nov-08 09:00N 53°20' E 007°10'0 0.0
2017-Nov-08 08:30N 53°20' E 007°10'0 0.0
2017-Nov-08 08:01N 53°20' E 007°10'0 0.0
2017-Nov-08 07:31N 53°20' E 007°10'0 0.0
2017-Nov-08 07:01N 53°20' E 007°10'0 0.0
2017-Nov-08 06:31N 53°20' E 007°10'0 0.0
2017-Nov-08 06:01N 53°20' E 007°10'0 0.0
2017-Nov-08 05:31N 53°20' E 007°10'0 0.0
2017-Nov-08 05:00N 53°20' E 007°10'0 0.0
2017-Nov-08 04:30N 53°20' E 007°10'0 0.0
2017-Nov-08 04:01N 53°20' E 007°10'0 0.0
2017-Nov-08 03:31N 53°20' E 007°10'0 0.0
2017-Nov-08 03:01N 53°20' E 007°10'0 0.0
2017-Nov-08 02:30N 53°20' E 007°10'0 0.0
2017-Nov-08 02:00N 53°20' E 007°10'0 0.0
2017-Nov-08 01:30N 53°20' E 007°10'0 0.0
2017-Nov-08 01:01N 53°20' E 007°10'0 0.0
2017-Nov-08 00:31N 53°20' E 007°10'0 0.0
2017-Nov-08 00:01N 53°20' E 007°10'0 0.0
2017-Nov-07 23:31N 53°20' E 007°10'1 2.7
2017-Nov-07 23:00N 53°20' E 007°08'510.0
2017-Nov-07 22:30N 53°21' E 006°59'815.1
2017-Nov-07 22:00N 53°27' E 006°52'36 6.5
2017-Nov-07 16:23N 53°52' E 007°37'512.7
2017-Nov-07 16:00N 53°53' E 007°46'612.3
2017-Nov-07 15:30N 53°52' E 007°56'816.6
2017-Nov-07 15:00N 53°48' E 008°08'917.8
2017-Nov-07 14:30N 53°42' E 008°20'714.6
2017-Nov-07 14:00N 53°37' E 008°29'4 8.5
2017-Nov-07 13:30N 53°34' E 008°33'0 0.6
2017-Nov-07 13:00N 53°34' E 008°33'0 0.0
2017-Nov-07 12:29N 53°34' E 008°33'0 0.0
2017-Nov-07 11:59N 53°34' E 008°33'0 0.0
2017-Nov-07 11:29N 53°34' E 008°33'0 0.0
2017-Nov-07 10:59N 53°34' E 008°33'0 0.0
2017-Nov-07 10:29N 53°34' E 008°33'0 0.0
2017-Nov-07 09:59N 53°34' E 008°33'0 0.0
2017-Nov-07 09:29N 53°34' E 008°33'0 0.0
2017-Nov-07 08:59N 53°34' E 008°33'0 0.0
2017-Nov-07 08:29N 53°34' E 008°33'0 0.0
2017-Nov-07 07:59N 53°34' E 008°33'0 0.0
2017-Nov-07 07:29N 53°34' E 008°33'0 0.0
2017-Nov-07 06:59N 53°34' E 008°33'0 0.0
2017-Nov-07 06:29N 53°34' E 008°33'0 0.0
2017-Nov-07 05:59N 53°34' E 008°33'0 0.0
2017-Nov-07 05:29N 53°34' E 008°33'0 0.0
2017-Nov-07 04:59N 53°34' E 008°33'0 0.0
2017-Nov-07 04:29N 53°34' E 008°33'0 0.0
2017-Nov-07 03:59N 53°34' E 008°33'0 0.0
2017-Nov-07 03:29N 53°34' E 008°33'0 0.0
2017-Nov-07 02:59N 53°34' E 008°33'0 0.0
2017-Nov-07 02:29N 53°34' E 008°33'0 0.0
2017-Nov-07 01:59N 53°34' E 008°33'0 0.0
2017-Nov-07 01:29N 53°34' E 008°33'0 0.0
2017-Nov-07 00:59N 53°34' E 008°33'0 0.0
2017-Nov-07 00:29N 53°34' E 008°33'0 0.0
2017-Nov-06 23:59N 53°34' E 008°33'0 0.0
2017-Nov-06 23:29N 53°34' E 008°33'0 0.0
2017-Nov-06 22:59N 53°34' E 008°33'0 0.0
2017-Nov-06 22:29N 53°34' E 008°33'0 0.0
2017-Nov-06 21:59N 53°34' E 008°33'0 0.0
2017-Nov-06 21:29N 53°34' E 008°33'0 0.0
2017-Nov-06 20:59N 53°34' E 008°33'0 0.0
2017-Nov-06 20:29N 53°34' E 008°33'  

Dump ship's entire track history